• Join FlightAware (Why Join?)
  • Login
  • US Flag 
01:58AM EDT


 

Airport Tracker/Info


-or-


 

Live Flight TrackerFlight Track Log ✈ CTL17 ✈ 18-Jun-2013 ✈ KYIP - KBKL

Flight Track Log - Related Links

Times and Time Zones

All times are in EDT time to prevent confusion due to time zone crossing. See the CTL17 flight status page for this flight to view local times or setup timezone preferences in your user account.

Time Position Orientation Groundspeed Altitude Reporting Facility
EDT Latitude Longitude Course Direction KTS MPH feet Rate Location/Type
05:40PM 42.2769 -83.5158 354° North 125 144 1,900  Level Cleveland Center
05:41PM 42.3039 -83.5172 358° North 117 135 2,700 840 Climbing Cleveland Center
05:42PM 42.3325 -83.5464 323° Northwest 149 171 3,700 840 Climbing Cleveland Center
05:43PM 42.3083 -83.5903 233° Southwest 152 175 4,500 600 Climbing Cleveland Center
05:44PM 42.2756 -83.5636 149° Southeast 147 169 5,000 180 Climbing Cleveland Center
05:45PM 42.2394 -83.5086 132° Southeast 170 196 5,000 -60 Level Cleveland Center
05:46PM 42.2219 -83.4572 115° Southeast 159 183 4,900  Descending Cleveland Center
05:47PM 42.2028 -83.3947 112° Southeast 169 194 5,000  Climbing Cleveland Center
05:48PM 42.1833 -83.3378 115° Southeast 164 189 5,000  Level Cleveland Center
05:49PM 42.1639 -83.2808 115° Southeast 165 190 5,100  Climbing Cleveland Center
05:50PM 42.1400 -83.2239 119° Southeast 171 197 5,000 -60 Descending Cleveland Center
05:51PM 42.1183 -83.1725 120° Southeast 171 197 5,000  Level Cleveland Center
05:52PM 42.0906 -83.1156 123° Southeast 171 197 5,000  Level Cleveland Center
05:53PM 42.0708 -83.0558 114° Southeast 171 197 5,000  Level Cleveland Center
05:54PM 42.0450 -82.9961 120° Southeast 169 194 5,000  Level Cleveland Center
05:55PM 42.0233 -82.9367 116° Southeast 168 193 5,000  Level Cleveland Center
05:56PM 41.9956 -82.8714 120° Southeast 169 194 5,000  Level Cleveland Center
05:57PM 41.9717 -82.8119 118° Southeast 173 199 5,000  Level Cleveland Center
05:58PM 41.9475 -82.7608 122° Southeast 170 196 5,000  Level Cleveland Center
05:59PM 41.9217 -82.6986 119° Southeast 171 197 5,000  Level Cleveland Center
06:01PM 41.8978 -82.6392 118° Southeast 173 199 5,000  Level Cleveland Center
06:01PM 41.8758 -82.5853 119° Southeast 173 199 5,100  Climbing Cleveland Center
06:02PM 41.8558 -82.5292 116° Southeast 170 196 5,000 -60 Descending Cleveland Center
06:03PM 41.8358 -82.4783 118° Southeast 168 193 5,000  Level Cleveland Center
06:04PM 41.8117 -82.4247 121° Southeast 171 197 5,000  Level Cleveland Center
06:05PM 41.7875 -82.3711 121° Southeast 169 194 5,000  Level Cleveland Center
06:07PM 41.7614 -82.3061 118° Southeast 171 197 5,000 -60 Level Cleveland Center
06:07PM 41.7414 -82.2528 117° Southeast 170 196 4,900 -360 Descending Cleveland Center
06:08PM 41.7153 -82.1908 119° Southeast 194 223 4,400 -480 Descending Cleveland Center
06:10PM 41.6911 -82.1236 116° Southeast 182 209 3,900 -540 Descending Cleveland Center
06:10PM 41.6689 -82.0731 120° Southeast 186 214 3,400 -480 Descending Cleveland Center
06:11PM 41.6425 -82.0114 120° Southeast 183 211 3,000 -300 Descending Cleveland Center
06:13PM 41.6203 -81.9525 117° Southeast 164 189 2,800 -300 Descending Cleveland Center
06:14PM 41.5961 -81.8936 119° Southeast 177 204 2,400 -480 Descending Cleveland Center
06:15PM 41.5611 -81.8347 128° Southeast 171 197 1,900 -420 Descending Cleveland Center
06:16PM 41.5367 -81.7925 128° Southeast 163 188 1,600 -300 Descending Cleveland Center
06:17PM 41.5142 -81.7506 126° Southeast 148 170 1,400 -360 Descending Cleveland Center
06:18PM 41.5061 -81.7089 104° East 96 110 900 -480 Descending Cleveland Center